sensor_id;sensor_type;location;lat;lon;timestamp;P1;durP1;ratioP1;P2;durP2;ratioP2
13868;SDS011;7004;48.206;16.402;2024-03-17T00:01:11;1.70;;;1.60;;
13868;SDS011;7004;48.206;16.402;2024-03-17T00:03:37;1.30;;;1.20;;
13868;SDS011;7004;48.206;16.402;2024-03-17T00:06:04;1.30;;;1.30;;
13868;SDS011;7004;48.206;16.402;2024-03-17T00:08:31;1.00;;;1.00;;
13868;SDS011;7004;48.206;16.402;2024-03-17T00:10:57;1.37;;;1.27;;
13868;SDS011;7004;48.206;16.402;2024-03-17T00:13:23;1.63;;;1.50;;
13868;SDS011;7004;48.206;16.402;2024-03-17T00:15:50;1.30;;;1.20;;
13868;SDS011;7004;48.206;16.402;2024-03-17T00:18:16;1.40;;;1.30;;
13868;SDS011;7004;48.206;16.402;2024-03-17T00:20:43;1.10;;;1.10;;
13868;SDS011;7004;48.206;16.402;2024-03-17T00:23:10;1.93;;;1.50;;
13868;SDS011;7004;48.206;16.402;2024-03-17T00:25:37;2.83;;;1.50;;
13868;SDS011;7004;48.206;16.402;2024-03-17T00:28:05;1.30;;;1.20;;
13868;SDS011;7004;48.206;16.402;2024-03-17T00:30:34;1.50;;;1.40;;
13868;SDS011;7004;48.206;16.402;2024-03-17T00:33:02;1.97;;;1.60;;
13868;SDS011;7004;48.206;16.402;2024-03-17T00:35:29;1.37;;;1.27;;
13868;SDS011;7004;48.206;16.402;2024-03-17T00:37:55;2.20;;;1.90;;
13868;SDS011;7004;48.206;16.402;2024-03-17T00:40:22;1.60;;;1.50;;
13868;SDS011;7004;48.206;16.402;2024-03-17T00:42:48;1.63;;;1.53;;
13868;SDS011;7004;48.206;16.402;2024-03-17T00:45:14;2.00;;;1.80;;
13868;SDS011;7004;48.206;16.402;2024-03-17T00:47:41;2.10;;;1.90;;
13868;SDS011;7004;48.206;16.402;2024-03-17T00:50:07;2.23;;;2.03;;
13868;SDS011;7004;48.206;16.402;2024-03-17T00:52:36;1.90;;;1.80;;
13868;SDS011;7004;48.206;16.402;2024-03-17T00:55:03;2.33;;;2.03;;
13868;SDS011;7004;48.206;16.402;2024-03-17T00:57:31;2.63;;;2.00;;
13868;SDS011;7004;48.206;16.402;2024-03-17T00:59:57;4.33;;;2.50;;
13868;SDS011;7004;48.206;16.402;2024-03-17T01:02:23;3.83;;;2.30;;
13868;SDS011;7004;48.206;16.402;2024-03-17T01:04:50;3.20;;;2.23;;
13868;SDS011;7004;48.206;16.402;2024-03-17T01:07:16;2.10;;;1.83;;
13868;SDS011;7004;48.206;16.402;2024-03-17T01:09:42;2.37;;;2.17;;
13868;SDS011;7004;48.206;16.402;2024-03-17T01:12:08;2.40;;;2.20;;
13868;SDS011;7004;48.206;16.402;2024-03-17T01:14:34;2.50;;;2.30;;
13868;SDS011;7004;48.206;16.402;2024-03-17T01:17:00;2.50;;;2.23;;
13868;SDS011;7004;48.206;16.402;2024-03-17T01:19:30;2.57;;;2.37;;
13868;SDS011;7004;48.206;16.402;2024-03-17T01:21:57;2.40;;;2.20;;
13868;SDS011;7004;48.206;16.402;2024-03-17T01:24:25;2.50;;;2.30;;
13868;SDS011;7004;48.206;16.402;2024-03-17T01:26:59;2.63;;;2.37;;
13868;SDS011;7004;48.206;16.402;2024-03-17T01:29:26;2.80;;;2.60;;
13868;SDS011;7004;48.206;16.402;2024-03-17T01:31:53;3.43;;;2.83;;
13868;SDS011;7004;48.206;16.402;2024-03-17T01:34:19;3.00;;;2.70;;
13868;SDS011;7004;48.206;16.402;2024-03-17T01:36:45;3.53;;;2.90;;
13868;SDS011;7004;48.206;16.402;2024-03-17T01:39:11;3.40;;;3.10;;
13868;SDS011;7004;48.206;16.402;2024-03-17T01:41:38;3.57;;;3.23;;
13868;SDS011;7004;48.206;16.402;2024-03-17T01:44:05;3.00;;;2.70;;
13868;SDS011;7004;48.206;16.402;2024-03-17T01:46:32;3.30;;;3.00;;
13868;SDS011;7004;48.206;16.402;2024-03-17T01:48:59;3.90;;;3.47;;
13868;SDS011;7004;48.206;16.402;2024-03-17T01:51:25;3.47;;;2.97;;
13868;SDS011;7004;48.206;16.402;2024-03-17T01:53:51;4.33;;;3.37;;
13868;SDS011;7004;48.206;16.402;2024-03-17T01:56:18;3.67;;;3.33;;
13868;SDS011;7004;48.206;16.402;2024-03-17T01:58:45;3.63;;;3.20;;
13868;SDS011;7004;48.206;16.402;2024-03-17T02:01:12;3.70;;;3.30;;
13868;SDS011;7004;48.206;16.402;2024-03-17T02:03:41;4.67;;;3.47;;
13868;SDS011;7004;48.206;16.402;2024-03-17T02:06:14;4.90;;;4.00;;
13868;SDS011;7004;48.206;16.402;2024-03-17T02:08:52;4.07;;;3.67;;
13868;SDS011;7004;48.206;16.402;2024-03-17T02:11:27;6.27;;;3.87;;
13868;SDS011;7004;48.206;16.402;2024-03-17T02:13:59;4.33;;;3.47;;
13868;SDS011;7004;48.206;16.402;2024-03-17T02:16:31;5.43;;;3.93;;
13868;SDS011;7004;48.206;16.402;2024-03-17T02:19:05;6.23;;;4.03;;
13868;SDS011;7004;48.206;16.402;2024-03-17T02:21:44;4.40;;;3.87;;
13868;SDS011;7004;48.206;16.402;2024-03-17T02:24:19;6.10;;;4.47;;
13868;SDS011;7004;48.206;16.402;2024-03-17T02:26:46;6.17;;;4.10;;
13868;SDS011;7004;48.206;16.402;2024-03-17T02:29:12;5.70;;;4.50;;
13868;SDS011;7004;48.206;16.402;2024-03-17T02:31:43;6.00;;;4.20;;
13868;SDS011;7004;48.206;16.402;2024-03-17T02:34:09;5.40;;;4.03;;
13868;SDS011;7004;48.206;16.402;2024-03-17T02:36:35;5.50;;;4.03;;
13868;SDS011;7004;48.206;16.402;2024-03-17T02:39:02;6.40;;;4.47;;
13868;SDS011;7004;48.206;16.402;2024-03-17T02:41:47;6.67;;;4.60;;
13868;SDS011;7004;48.206;16.402;2024-03-17T02:44:13;4.90;;;4.03;;
13868;SDS011;7004;48.206;16.402;2024-03-17T02:46:39;5.10;;;4.17;;
13868;SDS011;7004;48.206;16.402;2024-03-17T02:49:05;8.27;;;4.47;;
13868;SDS011;7004;48.206;16.402;2024-03-17T02:51:35;6.53;;;4.43;;
13868;SDS011;7004;48.206;16.402;2024-03-17T02:54:01;5.30;;;3.90;;
13868;SDS011;7004;48.206;16.402;2024-03-17T02:56:27;7.07;;;4.37;;
13868;SDS011;7004;48.206;16.402;2024-03-17T02:58:53;9.43;;;4.43;;
13868;SDS011;7004;48.206;16.402;2024-03-17T03:01:19;5.63;;;4.20;;
13868;SDS011;7004;48.206;16.402;2024-03-17T03:03:46;5.13;;;4.20;;
13868;SDS011;7004;48.206;16.402;2024-03-17T03:06:16;7.07;;;4.20;;
13868;SDS011;7004;48.206;16.402;2024-03-17T03:08:45;6.37;;;4.30;;
13868;SDS011;7004;48.206;16.402;2024-03-17T03:11:15;7.90;;;4.10;;
13868;SDS011;7004;48.206;16.402;2024-03-17T03:13:44;5.90;;;4.27;;
13868;SDS011;7004;48.206;16.402;2024-03-17T03:16:13;5.57;;;4.53;;
13868;SDS011;7004;48.206;16.402;2024-03-17T03:18:41;7.80;;;4.57;;
13868;SDS011;7004;48.206;16.402;2024-03-17T03:21:10;7.07;;;4.37;;
13868;SDS011;7004;48.206;16.402;2024-03-17T03:23:38;8.03;;;4.40;;
13868;SDS011;7004;48.206;16.402;2024-03-17T03:26:04;6.80;;;4.60;;
13868;SDS011;7004;48.206;16.402;2024-03-17T03:28:36;7.23;;;4.90;;
13868;SDS011;7004;48.206;16.402;2024-03-17T03:31:03;7.53;;;4.60;;
13868;SDS011;7004;48.206;16.402;2024-03-17T03:33:31;7.57;;;4.73;;
13868;SDS011;7004;48.206;16.402;2024-03-17T03:35:58;8.73;;;4.83;;
13868;SDS011;7004;48.206;16.402;2024-03-17T03:38:24;7.50;;;4.37;;
13868;SDS011;7004;48.206;16.402;2024-03-17T03:40:51;9.07;;;4.70;;
13868;SDS011;7004;48.206;16.402;2024-03-17T03:43:18;4.90;;;4.10;;
13868;SDS011;7004;48.206;16.402;2024-03-17T03:45:45;6.90;;;4.13;;
13868;SDS011;7004;48.206;16.402;2024-03-17T03:48:11;6.43;;;4.80;;
13868;SDS011;7004;48.206;16.402;2024-03-17T03:50:40;6.37;;;4.30;;
13868;SDS011;7004;48.206;16.402;2024-03-17T03:53:06;7.20;;;4.57;;
13868;SDS011;7004;48.206;16.402;2024-03-17T03:55:34;8.60;;;4.60;;
13868;SDS011;7004;48.206;16.402;2024-03-17T03:58:01;6.87;;;4.50;;
13868;SDS011;7004;48.206;16.402;2024-03-17T04:00:29;6.83;;;4.47;;
13868;SDS011;7004;48.206;16.402;2024-03-17T04:02:58;7.07;;;4.97;;
13868;SDS011;7004;48.206;16.402;2024-03-17T04:05:26;7.23;;;4.73;;
13868;SDS011;7004;48.206;16.402;2024-03-17T04:07:52;6.17;;;4.00;;
13868;SDS011;7004;48.206;16.402;2024-03-17T04:10:18;7.07;;;5.10;;
13868;SDS011;7004;48.206;16.402;2024-03-17T04:12:45;8.50;;;5.30;;
13868;SDS011;7004;48.206;16.402;2024-03-17T04:15:13;7.50;;;4.90;;
13868;SDS011;7004;48.206;16.402;2024-03-17T04:17:39;6.50;;;4.60;;
13868;SDS011;7004;48.206;16.402;2024-03-17T04:20:06;7.67;;;4.67;;
13868;SDS011;7004;48.206;16.402;2024-03-17T04:22:33;5.80;;;5.20;;
13868;SDS011;7004;48.206;16.402;2024-03-17T04:25:00;7.00;;;5.27;;
13868;SDS011;7004;48.206;16.402;2024-03-17T04:27:27;8.47;;;5.03;;
13868;SDS011;7004;48.206;16.402;2024-03-17T04:29:54;6.80;;;4.70;;
13868;SDS011;7004;48.206;16.402;2024-03-17T04:32:22;9.07;;;5.27;;
13868;SDS011;7004;48.206;16.402;2024-03-17T04:34:49;9.83;;;4.70;;
13868;SDS011;7004;48.206;16.402;2024-03-17T04:37:17;9.73;;;4.77;;
13868;SDS011;7004;48.206;16.402;2024-03-17T04:39:44;7.13;;;4.83;;
13868;SDS011;7004;48.206;16.402;2024-03-17T04:42:12;8.63;;;4.60;;
13868;SDS011;7004;48.206;16.402;2024-03-17T04:44:40;10.67;;;4.57;;
13868;SDS011;7004;48.206;16.402;2024-03-17T04:47:07;8.67;;;4.17;;
13868;SDS011;7004;48.206;16.402;2024-03-17T04:49:37;6.93;;;4.10;;
13868;SDS011;7004;48.206;16.402;2024-03-17T04:52:11;6.77;;;4.60;;
13868;SDS011;7004;48.206;16.402;2024-03-17T04:54:38;7.13;;;4.37;;
13868;SDS011;7004;48.206;16.402;2024-03-17T04:57:08;6.67;;;4.27;;
13868;SDS011;7004;48.206;16.402;2024-03-17T04:59:35;5.10;;;4.10;;
13868;SDS011;7004;48.206;16.402;2024-03-17T05:02:01;6.57;;;4.13;;
13868;SDS011;7004;48.206;16.402;2024-03-17T05:04:28;6.63;;;4.07;;
13868;SDS011;7004;48.206;16.402;2024-03-17T05:06:55;5.67;;;4.30;;
13868;SDS011;7004;48.206;16.402;2024-03-17T05:09:22;6.13;;;3.97;;
13868;SDS011;7004;48.206;16.402;2024-03-17T05:11:49;5.50;;;3.83;;
13868;SDS011;7004;48.206;16.402;2024-03-17T05:14:19;5.87;;;4.53;;
13868;SDS011;7004;48.206;16.402;2024-03-17T05:16:47;5.77;;;4.13;;
13868;SDS011;7004;48.206;16.402;2024-03-17T05:19:16;7.87;;;4.60;;
13868;SDS011;7004;48.206;16.402;2024-03-17T05:21:43;10.83;;;4.60;;
13868;SDS011;7004;48.206;16.402;2024-03-17T05:24:10;7.07;;;4.50;;
13868;SDS011;7004;48.206;16.402;2024-03-17T05:26:38;11.53;;;5.10;;
13868;SDS011;7004;48.206;16.402;2024-03-17T05:29:04;9.10;;;4.97;;
13868;SDS011;7004;48.206;16.402;2024-03-17T05:31:30;7.13;;;4.73;;
13868;SDS011;7004;48.206;16.402;2024-03-17T05:33:57;6.17;;;4.67;;
13868;SDS011;7004;48.206;16.402;2024-03-17T05:36:23;7.13;;;4.77;;
13868;SDS011;7004;48.206;16.402;2024-03-17T05:38:49;8.70;;;4.87;;
13868;SDS011;7004;48.206;16.402;2024-03-17T05:41:16;7.07;;;4.80;;
13868;SDS011;7004;48.206;16.402;2024-03-17T05:43:42;7.33;;;5.07;;
13868;SDS011;7004;48.206;16.402;2024-03-17T05:46:09;6.77;;;4.80;;
13868;SDS011;7004;48.206;16.402;2024-03-17T05:48:38;7.33;;;5.27;;
13868;SDS011;7004;48.206;16.402;2024-03-17T05:51:06;6.67;;;4.87;;
13868;SDS011;7004;48.206;16.402;2024-03-17T05:53:37;11.87;;;5.03;;
13868;SDS011;7004;48.206;16.402;2024-03-17T05:56:05;8.30;;;4.77;;
13868;SDS011;7004;48.206;16.402;2024-03-17T05:58:37;8.07;;;4.73;;
13868;SDS011;7004;48.206;16.402;2024-03-17T06:01:04;6.97;;;4.13;;
13868;SDS011;7004;48.206;16.402;2024-03-17T06:03:33;6.03;;;4.23;;
13868;SDS011;7004;48.206;16.402;2024-03-17T06:06:03;10.10;;;4.13;;
13868;SDS011;7004;48.206;16.402;2024-03-17T06:08:33;6.70;;;4.57;;
13868;SDS011;7004;48.206;16.402;2024-03-17T06:10:59;6.83;;;4.10;;
13868;SDS011;7004;48.206;16.402;2024-03-17T06:13:28;6.20;;;3.40;;
13868;SDS011;7004;48.206;16.402;2024-03-17T06:15:54;7.03;;;3.97;;
13868;SDS011;7004;48.206;16.402;2024-03-17T06:18:26;6.63;;;4.13;;
13868;SDS011;7004;48.206;16.402;2024-03-17T06:20:53;6.67;;;3.90;;
13868;SDS011;7004;48.206;16.402;2024-03-17T06:23:23;7.17;;;3.60;;
13868;SDS011;7004;48.206;16.402;2024-03-17T06:25:52;6.90;;;3.83;;
13868;SDS011;7004;48.206;16.402;2024-03-17T06:28:20;7.07;;;3.87;;
13868;SDS011;7004;48.206;16.402;2024-03-17T06:30:57;7.47;;;4.07;;
13868;SDS011;7004;48.206;16.402;2024-03-17T06:33:30;6.57;;;4.30;;
13868;SDS011;7004;48.206;16.402;2024-03-17T06:35:57;10.23;;;4.20;;
13868;SDS011;7004;48.206;16.402;2024-03-17T06:38:26;8.10;;;3.67;;
13868;SDS011;7004;48.206;16.402;2024-03-17T06:40:52;7.23;;;4.00;;
13868;SDS011;7004;48.206;16.402;2024-03-17T06:43:19;6.87;;;3.90;;
13868;SDS011;7004;48.206;16.402;2024-03-17T06:45:55;4.07;;;3.10;;
13868;SDS011;7004;48.206;16.402;2024-03-17T06:48:23;6.10;;;3.80;;
13868;SDS011;7004;48.206;16.402;2024-03-17T06:50:51;6.93;;;3.90;;
13868;SDS011;7004;48.206;16.402;2024-03-17T06:53:20;7.57;;;3.50;;
13868;SDS011;7004;48.206;16.402;2024-03-17T06:55:57;5.83;;;3.10;;
13868;SDS011;7004;48.206;16.402;2024-03-17T06:58:25;5.87;;;3.70;;
13868;SDS011;7004;48.206;16.402;2024-03-17T07:00:53;4.23;;;3.00;;
13868;SDS011;7004;48.206;16.402;2024-03-17T07:03:28;5.77;;;3.30;;
13868;SDS011;7004;48.206;16.402;2024-03-17T07:05:58;4.67;;;3.13;;
13868;SDS011;7004;48.206;16.402;2024-03-17T07:08:28;6.03;;;3.60;;
13868;SDS011;7004;48.206;16.402;2024-03-17T07:13:23;7.13;;;3.37;;
13868;SDS011;7004;48.206;16.402;2024-03-17T07:15:49;9.70;;;2.93;;
13868;SDS011;7004;48.206;16.402;2024-03-17T07:18:15;5.53;;;3.00;;
13868;SDS011;7004;48.206;16.402;2024-03-17T07:20:42;8.10;;;3.50;;
13868;SDS011;7004;48.206;16.402;2024-03-17T07:23:10;5.00;;;3.30;;
13868;SDS011;7004;48.206;16.402;2024-03-17T07:25:37;6.20;;;3.33;;
13868;SDS011;7004;48.206;16.402;2024-03-17T07:28:03;5.77;;;3.57;;
13868;SDS011;7004;48.206;16.402;2024-03-17T07:30:29;4.67;;;3.13;;
13868;SDS011;7004;48.206;16.402;2024-03-17T07:32:55;6.00;;;2.93;;
13868;SDS011;7004;48.206;16.402;2024-03-17T07:35:21;4.83;;;3.50;;
13868;SDS011;7004;48.206;16.402;2024-03-17T07:37:48;9.33;;;3.43;;
13868;SDS011;7004;48.206;16.402;2024-03-17T07:40:14;4.53;;;3.60;;
13868;SDS011;7004;48.206;16.402;2024-03-17T07:42:41;6.07;;;3.40;;
13868;SDS011;7004;48.206;16.402;2024-03-17T07:45:07;6.07;;;3.33;;
13868;SDS011;7004;48.206;16.402;2024-03-17T07:47:34;10.00;;;3.40;;
13868;SDS011;7004;48.206;16.402;2024-03-17T07:50:03;4.77;;;3.27;;
13868;SDS011;7004;48.206;16.402;2024-03-17T07:52:31;7.83;;;3.40;;
13868;SDS011;7004;48.206;16.402;2024-03-17T07:54:57;7.07;;;3.90;;
13868;SDS011;7004;48.206;16.402;2024-03-17T07:57:24;7.30;;;3.20;;
13868;SDS011;7004;48.206;16.402;2024-03-17T07:59:50;6.33;;;3.07;;
13868;SDS011;7004;48.206;16.402;2024-03-17T08:02:17;6.80;;;3.23;;
13868;SDS011;7004;48.206;16.402;2024-03-17T08:04:43;6.30;;;3.20;;
13868;SDS011;7004;48.206;16.402;2024-03-17T08:07:12;8.93;;;3.30;;
13868;SDS011;7004;48.206;16.402;2024-03-17T08:09:39;4.30;;;3.00;;
13868;SDS011;7004;48.206;16.402;2024-03-17T08:12:05;8.80;;;3.17;;
13868;SDS011;7004;48.206;16.402;2024-03-17T08:14:32;7.40;;;3.37;;
13868;SDS011;7004;48.206;16.402;2024-03-17T08:16:58;4.43;;;3.03;;
13868;SDS011;7004;48.206;16.402;2024-03-17T08:19:24;5.03;;;2.83;;
13868;SDS011;7004;48.206;16.402;2024-03-17T08:21:51;5.53;;;3.07;;
13868;SDS011;7004;48.206;16.402;2024-03-17T08:24:17;2.87;;;2.53;;
13868;SDS011;7004;48.206;16.402;2024-03-17T08:26:43;7.87;;;3.07;;
13868;SDS011;7004;48.206;16.402;2024-03-17T08:29:11;2.90;;;2.30;;
13868;SDS011;7004;48.206;16.402;2024-03-17T08:31:37;6.13;;;3.10;;
13868;SDS011;7004;48.206;16.402;2024-03-17T08:34:04;5.17;;;3.20;;
13868;SDS011;7004;48.206;16.402;2024-03-17T08:36:30;7.23;;;3.23;;
13868;SDS011;7004;48.206;16.402;2024-03-17T08:38:56;5.50;;;3.03;;
13868;SDS011;7004;48.206;16.402;2024-03-17T08:41:23;5.47;;;3.20;;
13868;SDS011;7004;48.206;16.402;2024-03-17T08:43:51;4.87;;;3.17;;
13868;SDS011;7004;48.206;16.402;2024-03-17T08:46:17;6.63;;;3.17;;
13868;SDS011;7004;48.206;16.402;2024-03-17T08:48:43;4.47;;;2.87;;
13868;SDS011;7004;48.206;16.402;2024-03-17T08:51:10;6.60;;;3.27;;
13868;SDS011;7004;48.206;16.402;2024-03-17T08:53:36;5.47;;;3.20;;
13868;SDS011;7004;48.206;16.402;2024-03-17T08:56:06;7.30;;;3.30;;
13868;SDS011;7004;48.206;16.402;2024-03-17T08:58:32;5.20;;;3.10;;
13868;SDS011;7004;48.206;16.402;2024-03-17T09:00:58;4.27;;;2.80;;
13868;SDS011;7004;48.206;16.402;2024-03-17T09:03:28;6.50;;;3.10;;
13868;SDS011;7004;48.206;16.402;2024-03-17T09:05:54;3.93;;;2.90;;
13868;SDS011;7004;48.206;16.402;2024-03-17T09:08:21;3.73;;;2.80;;
13868;SDS011;7004;48.206;16.402;2024-03-17T09:10:50;5.67;;;3.10;;
13868;SDS011;7004;48.206;16.402;2024-03-17T09:13:24;3.80;;;2.83;;
13868;SDS011;7004;48.206;16.402;2024-03-17T09:18:27;8.33;;;3.13;;
13868;SDS011;7004;48.206;16.402;2024-03-17T09:21:01;4.33;;;3.10;;
13868;SDS011;7004;48.206;16.402;2024-03-17T09:23:29;4.13;;;3.00;;
13868;SDS011;7004;48.206;16.402;2024-03-17T09:28:26;3.90;;;3.40;;
13868;SDS011;7004;48.206;16.402;2024-03-17T09:30:53;4.67;;;3.00;;
13868;SDS011;7004;48.206;16.402;2024-03-17T09:33:22;6.80;;;3.40;;
13868;SDS011;7004;48.206;16.402;2024-03-17T09:35:56;5.60;;;3.13;;
13868;SDS011;7004;48.206;16.402;2024-03-17T09:38:36;4.63;;;3.20;;
13868;SDS011;7004;48.206;16.402;2024-03-17T09:41:03;4.63;;;3.20;;
13868;SDS011;7004;48.206;16.402;2024-03-17T09:43:32;4.43;;;2.80;;
13868;SDS011;7004;48.206;16.402;2024-03-17T09:46:03;4.03;;;2.90;;
13868;SDS011;7004;48.206;16.402;2024-03-17T09:48:31;3.73;;;3.17;;
13868;SDS011;7004;48.206;16.402;2024-03-17T09:51:00;5.37;;;3.20;;
13868;SDS011;7004;48.206;16.402;2024-03-17T09:53:28;3.50;;;2.80;;
13868;SDS011;7004;48.206;16.402;2024-03-17T09:56:01;3.90;;;2.67;;
13868;SDS011;7004;48.206;16.402;2024-03-17T09:58:34;2.90;;;2.60;;
13868;SDS011;7004;48.206;16.402;2024-03-17T10:01:01;3.10;;;2.63;;
13868;SDS011;7004;48.206;16.402;2024-03-17T10:06:29;4.77;;;2.83;;
13868;SDS011;7004;48.206;16.402;2024-03-17T10:08:57;3.70;;;2.83;;
13868;SDS011;7004;48.206;16.402;2024-03-17T10:11:33;4.70;;;2.63;;
13868;SDS011;7004;48.206;16.402;2024-03-17T10:14:05;4.40;;;2.90;;
13868;SDS011;7004;48.206;16.402;2024-03-17T10:16:34;7.77;;;2.87;;
13868;SDS011;7004;48.206;16.402;2024-03-17T10:19:13;2.73;;;2.53;;
13868;SDS011;7004;48.206;16.402;2024-03-17T10:21:59;3.43;;;2.63;;
13868;SDS011;7004;48.206;16.402;2024-03-17T10:24:27;3.10;;;2.63;;
13868;SDS011;7004;48.206;16.402;2024-03-17T10:26:54;5.43;;;2.70;;
13868;SDS011;7004;48.206;16.402;2024-03-17T10:29:25;3.37;;;2.47;;
13868;SDS011;7004;48.206;16.402;2024-03-17T10:31:57;3.60;;;2.80;;
13868;SDS011;7004;48.206;16.402;2024-03-17T10:34:29;4.43;;;2.70;;
13868;SDS011;7004;48.206;16.402;2024-03-17T10:39:43;4.70;;;2.67;;
13868;SDS011;7004;48.206;16.402;2024-03-17T10:42:10;3.17;;;2.80;;
13868;SDS011;7004;48.206;16.402;2024-03-17T10:44:40;4.40;;;3.10;;
13868;SDS011;7004;48.206;16.402;2024-03-17T10:47:16;3.37;;;2.33;;
13868;SDS011;7004;48.206;16.402;2024-03-17T10:49:46;3.37;;;2.27;;
13868;SDS011;7004;48.206;16.402;2024-03-17T10:52:18;3.43;;;2.47;;
13868;SDS011;7004;48.206;16.402;2024-03-17T10:54:48;5.03;;;2.57;;
13868;SDS011;7004;48.206;16.402;2024-03-17T11:00:16;4.57;;;2.53;;
13868;SDS011;7004;48.206;16.402;2024-03-17T11:02:44;3.70;;;2.30;;
13868;SDS011;7004;48.206;16.402;2024-03-17T11:07:49;3.20;;;2.47;;
13868;SDS011;7004;48.206;16.402;2024-03-17T11:10:21;4.50;;;2.80;;
13868;SDS011;7004;48.206;16.402;2024-03-17T11:20:35;4.87;;;2.53;;
13868;SDS011;7004;48.206;16.402;2024-03-17T11:23:04;3.07;;;2.47;;
13868;SDS011;7004;48.206;16.402;2024-03-17T11:28:00;2.47;;;2.03;;
13868;SDS011;7004;48.206;16.402;2024-03-17T11:38:55;4.20;;;2.20;;
13868;SDS011;7004;48.206;16.402;2024-03-17T11:47:02;2.93;;;2.20;;
13868;SDS011;7004;48.206;16.402;2024-03-17T11:49:37;5.17;;;2.73;;
13868;SDS011;7004;48.206;16.402;2024-03-17T11:54:47;4.03;;;2.50;;
13868;SDS011;7004;48.206;16.402;2024-03-17T11:57:14;8.07;;;4.77;;
13868;SDS011;7004;48.206;16.402;2024-03-17T11:59:54;5.00;;;2.63;;
13868;SDS011;7004;48.206;16.402;2024-03-17T12:02:27;3.20;;;2.40;;
13868;SDS011;7004;48.206;16.402;2024-03-17T12:04:57;2.17;;;1.97;;
13868;SDS011;7004;48.206;16.402;2024-03-17T12:07:26;4.47;;;2.13;;
13868;SDS011;7004;48.206;16.402;2024-03-17T12:09:55;3.27;;;2.37;;
13868;SDS011;7004;48.206;16.402;2024-03-17T12:12:24;3.10;;;2.20;;
13868;SDS011;7004;48.206;16.402;2024-03-17T12:15:00;3.57;;;1.83;;
13868;SDS011;7004;48.206;16.402;2024-03-17T12:17:28;4.47;;;2.17;;
13868;SDS011;7004;48.206;16.402;2024-03-17T12:19:54;4.13;;;2.50;;
13868;SDS011;7004;48.206;16.402;2024-03-17T12:22:22;4.17;;;2.40;;
13868;SDS011;7004;48.206;16.402;2024-03-17T12:24:52;4.23;;;2.40;;
13868;SDS011;7004;48.206;16.402;2024-03-17T12:27:21;2.50;;;1.97;;
13868;SDS011;7004;48.206;16.402;2024-03-17T12:29:53;3.07;;;2.20;;
13868;SDS011;7004;48.206;16.402;2024-03-17T12:32:21;3.57;;;2.27;;
13868;SDS011;7004;48.206;16.402;2024-03-17T12:34:50;3.33;;;2.17;;
13868;SDS011;7004;48.206;16.402;2024-03-17T12:37:24;3.40;;;2.07;;
13868;SDS011;7004;48.206;16.402;2024-03-17T12:39:59;2.97;;;2.10;;
13868;SDS011;7004;48.206;16.402;2024-03-17T12:42:26;2.77;;;2.23;;
13868;SDS011;7004;48.206;16.402;2024-03-17T12:45:00;3.30;;;2.10;;
13868;SDS011;7004;48.206;16.402;2024-03-17T12:47:27;4.63;;;2.00;;
13868;SDS011;7004;48.206;16.402;2024-03-17T12:49:59;4.83;;;2.77;;
13868;SDS011;7004;48.206;16.402;2024-03-17T12:52:31;2.27;;;2.07;;
13868;SDS011;7004;48.206;16.402;2024-03-17T12:57:49;3.57;;;2.70;;
13868;SDS011;7004;48.206;16.402;2024-03-17T13:00:47;4.77;;;2.37;;
13868;SDS011;7004;48.206;16.402;2024-03-17T13:03:35;3.30;;;2.80;;
13868;SDS011;7004;48.206;16.402;2024-03-17T13:06:05;4.30;;;2.40;;
13868;SDS011;7004;48.206;16.402;2024-03-17T13:08:35;5.57;;;2.33;;
13868;SDS011;7004;48.206;16.402;2024-03-17T13:11:03;3.83;;;2.77;;
13868;SDS011;7004;48.206;16.402;2024-03-17T13:13:29;4.53;;;2.90;;
13868;SDS011;7004;48.206;16.402;2024-03-17T13:15:55;2.53;;;2.23;;
13868;SDS011;7004;48.206;16.402;2024-03-17T13:18:21;2.43;;;2.23;;
13868;SDS011;7004;48.206;16.402;2024-03-17T13:20:48;3.83;;;2.20;;
13868;SDS011;7004;48.206;16.402;2024-03-17T13:23:19;2.23;;;1.90;;
13868;SDS011;7004;48.206;16.402;2024-03-17T13:25:47;4.20;;;2.27;;
13868;SDS011;7004;48.206;16.402;2024-03-17T13:28:13;4.37;;;2.20;;
13868;SDS011;7004;48.206;16.402;2024-03-17T13:30:40;5.20;;;2.10;;
13868;SDS011;7004;48.206;16.402;2024-03-17T13:33:07;5.23;;;3.10;;
13868;SDS011;7004;48.206;16.402;2024-03-17T13:35:34;2.90;;;2.00;;
13868;SDS011;7004;48.206;16.402;2024-03-17T13:38:08;5.23;;;2.30;;
13868;SDS011;7004;48.206;16.402;2024-03-17T13:40:39;5.17;;;2.40;;
13868;SDS011;7004;48.206;16.402;2024-03-17T13:43:07;5.87;;;2.50;;
13868;SDS011;7004;48.206;16.402;2024-03-17T13:45:37;3.10;;;2.27;;
13868;SDS011;7004;48.206;16.402;2024-03-17T13:48:05;2.40;;;2.07;;
13868;SDS011;7004;48.206;16.402;2024-03-17T13:50:38;3.63;;;2.70;;
13868;SDS011;7004;48.206;16.402;2024-03-17T13:53:09;2.70;;;2.03;;
13868;SDS011;7004;48.206;16.402;2024-03-17T13:55:36;3.93;;;2.37;;
13868;SDS011;7004;48.206;16.402;2024-03-17T13:58:03;5.20;;;3.47;;
13868;SDS011;7004;48.206;16.402;2024-03-17T14:00:30;3.37;;;2.10;;
13868;SDS011;7004;48.206;16.402;2024-03-17T14:03:01;4.13;;;2.50;;
13868;SDS011;7004;48.206;16.402;2024-03-17T14:05:27;3.70;;;2.23;;
13868;SDS011;7004;48.206;16.402;2024-03-17T14:07:54;2.93;;;1.90;;
13868;SDS011;7004;48.206;16.402;2024-03-17T14:10:21;3.23;;;1.83;;
13868;SDS011;7004;48.206;16.402;2024-03-17T14:12:49;4.27;;;2.00;;
13868;SDS011;7004;48.206;16.402;2024-03-17T14:15:15;2.03;;;1.80;;
13868;SDS011;7004;48.206;16.402;2024-03-17T14:17:43;3.33;;;1.83;;
13868;SDS011;7004;48.206;16.402;2024-03-17T14:20:12;4.10;;;2.60;;
13868;SDS011;7004;48.206;16.402;2024-03-17T14:22:40;4.10;;;2.20;;
13868;SDS011;7004;48.206;16.402;2024-03-17T14:25:09;2.60;;;1.90;;
13868;SDS011;7004;48.206;16.402;2024-03-17T14:27:39;3.07;;;1.97;;
13868;SDS011;7004;48.206;16.402;2024-03-17T14:30:05;4.00;;;1.90;;
13868;SDS011;7004;48.206;16.402;2024-03-17T14:32:35;3.83;;;2.13;;
13868;SDS011;7004;48.206;16.402;2024-03-17T14:35:01;4.23;;;2.27;;
13868;SDS011;7004;48.206;16.402;2024-03-17T14:37:27;2.63;;;2.00;;
13868;SDS011;7004;48.206;16.402;2024-03-17T14:39:53;2.57;;;1.83;;
13868;SDS011;7004;48.206;16.402;2024-03-17T14:42:20;3.77;;;2.10;;
13868;SDS011;7004;48.206;16.402;2024-03-17T14:44:46;3.13;;;1.80;;
13868;SDS011;7004;48.206;16.402;2024-03-17T14:47:13;5.40;;;2.30;;
13868;SDS011;7004;48.206;16.402;2024-03-17T14:49:40;2.67;;;2.03;;
13868;SDS011;7004;48.206;16.402;2024-03-17T14:52:07;4.07;;;1.77;;
13868;SDS011;7004;48.206;16.402;2024-03-17T14:54:34;3.03;;;2.17;;
13868;SDS011;7004;48.206;16.402;2024-03-17T14:57:00;3.37;;;2.27;;
13868;SDS011;7004;48.206;16.402;2024-03-17T14:59:27;2.40;;;2.17;;
13868;SDS011;7004;48.206;16.402;2024-03-17T15:01:53;3.40;;;1.90;;
13868;SDS011;7004;48.206;16.402;2024-03-17T15:04:19;3.70;;;2.57;;
13868;SDS011;7004;48.206;16.402;2024-03-17T15:06:45;5.00;;;2.20;;
13868;SDS011;7004;48.206;16.402;2024-03-17T15:09:11;4.73;;;2.73;;
13868;SDS011;7004;48.206;16.402;2024-03-17T15:11:38;3.67;;;2.30;;
13868;SDS011;7004;48.206;16.402;2024-03-17T15:14:04;5.83;;;2.10;;
13868;SDS011;7004;48.206;16.402;2024-03-17T15:16:36;5.03;;;2.13;;
13868;SDS011;7004;48.206;16.402;2024-03-17T15:19:04;5.10;;;1.97;;
13868;SDS011;7004;48.206;16.402;2024-03-17T15:21:32;4.77;;;1.87;;
13868;SDS011;7004;48.206;16.402;2024-03-17T15:23:59;4.43;;;1.70;;
13868;SDS011;7004;48.206;16.402;2024-03-17T15:26:29;2.63;;;1.90;;
13868;SDS011;7004;48.206;16.402;2024-03-17T15:28:55;2.73;;;1.73;;
13868;SDS011;7004;48.206;16.402;2024-03-17T15:31:23;2.63;;;1.63;;
13868;SDS011;7004;48.206;16.402;2024-03-17T15:33:52;2.50;;;1.80;;
13868;SDS011;7004;48.206;16.402;2024-03-17T15:36:18;3.57;;;1.80;;
13868;SDS011;7004;48.206;16.402;2024-03-17T15:38:45;3.73;;;1.83;;
13868;SDS011;7004;48.206;16.402;2024-03-17T15:41:11;2.50;;;1.73;;
13868;SDS011;7004;48.206;16.402;2024-03-17T15:43:38;4.77;;;1.70;;